createdAt,value
2022-10-09T00:01:02.182Z,7.15
2022-10-09T00:03:28.993Z,7.22
2022-10-09T00:05:55.807Z,7.12
2022-10-09T00:08:22.551Z,7.03
2022-10-09T00:10:49.874Z,7.00
2022-10-09T00:13:16.674Z,7.13
2022-10-09T00:15:45.024Z,7.04
2022-10-09T00:18:13.574Z,7.07
2022-10-09T00:20:42.419Z,6.85
2022-10-09T00:23:09.839Z,6.85
2022-10-09T00:25:36.886Z,6.87
2022-10-09T00:28:04.964Z,6.90
2022-10-09T00:30:31.896Z,6.80
2022-10-09T00:32:58.651Z,6.77
2022-10-09T00:35:25.460Z,6.68
2022-10-09T00:37:52.171Z,6.68
2022-10-09T00:40:19.020Z,6.73
2022-10-09T00:42:45.973Z,6.51
2022-10-09T00:45:20.256Z,6.57
2022-10-09T00:47:50.360Z,6.57
2022-10-09T00:50:23.227Z,6.70
2022-10-09T00:52:53.685Z,6.58
2022-10-09T00:55:22.391Z,6.63
2022-10-09T00:57:50.453Z,6.47
2022-10-09T01:00:17.593Z,6.52
2022-10-09T01:02:44.381Z,6.53
2022-10-09T01:05:11.474Z,6.46
2022-10-09T01:07:48.631Z,6.41
2022-10-09T01:10:33.101Z,6.53
2022-10-09T01:13:07.731Z,6.44
2022-10-09T01:15:55.251Z,6.40
2022-10-09T01:18:38.748Z,6.30
2022-10-09T01:21:16.313Z,6.33
2022-10-09T01:24:06.925Z,6.40
2022-10-09T01:26:52.621Z,6.41
2022-10-09T01:29:20.635Z,6.39
2022-10-09T01:31:49.405Z,6.47
2022-10-09T01:34:18.410Z,6.38
2022-10-09T01:36:45.438Z,6.48
2022-10-09T01:39:17.404Z,6.32
2022-10-09T01:41:45.569Z,6.39
2022-10-09T01:44:24.109Z,6.37
2022-10-09T01:46:50.833Z,6.31
2022-10-09T01:49:33.279Z,6.41
2022-10-09T01:52:14.596Z,6.39
2022-10-09T01:54:56.970Z,6.30
2022-10-09T01:57:29.713Z,6.28
2022-10-09T01:59:58.173Z,6.33
2022-10-09T02:02:25.663Z,6.31
2022-10-09T02:04:53.424Z,6.29
2022-10-09T02:07:20.465Z,6.26
2022-10-09T02:09:47.198Z,6.18
2022-10-09T02:12:14.680Z,6.23
2022-10-09T02:14:41.622Z,6.13
2022-10-09T02:17:20.066Z,6.08
2022-10-09T02:20:10.428Z,6.08
2022-10-09T02:22:37.245Z,6.04
2022-10-09T02:25:06.468Z,6.03
2022-10-09T02:27:33.910Z,6.01
2022-10-09T02:30:01.147Z,5.95
2022-10-09T02:32:28.629Z,6.01
2022-10-09T02:34:55.417Z,6.15
2022-10-09T02:37:22.091Z,6.10
2022-10-09T02:39:49.310Z,6.11
2022-10-09T02:42:16.090Z,6.05
2022-10-09T02:44:42.907Z,6.16
2022-10-09T02:47:09.712Z,6.10
2022-10-09T02:49:36.436Z,6.00
2022-10-09T02:52:03.181Z,6.09
2022-10-09T02:54:29.966Z,6.17
2022-10-09T02:56:56.717Z,6.16
2022-10-09T02:59:23.501Z,6.23
2022-10-09T03:01:50.454Z,6.35
2022-10-09T03:04:17.265Z,6.35
2022-10-09T03:06:44.023Z,6.24
2022-10-09T03:09:10.803Z,6.31
2022-10-09T03:11:37.539Z,6.25
2022-10-09T03:14:06.954Z,6.25
2022-10-09T03:16:33.815Z,6.29
2022-10-09T03:19:00.636Z,6.18
2022-10-09T03:21:28.117Z,6.33
2022-10-09T03:23:55.278Z,6.50
2022-10-09T03:26:25.045Z,6.62
2022-10-09T03:28:53.218Z,6.70
2022-10-09T03:31:46.979Z,6.68
2022-10-09T03:34:11.167Z,6.68
2022-10-09T03:36:37.884Z,6.63
2022-10-09T03:39:04.664Z,6.62
2022-10-09T03:41:31.405Z,6.65
2022-10-09T03:43:58.149Z,6.57
2022-10-09T03:46:25.027Z,6.45
2022-10-09T03:48:51.832Z,6.40
2022-10-09T03:51:18.576Z,6.33
2022-10-09T03:53:45.365Z,6.21
2022-10-09T03:56:12.144Z,6.24
2022-10-09T03:58:38.881Z,6.21
2022-10-09T04:01:05.762Z,6.17
2022-10-09T04:03:32.688Z,6.05
2022-10-09T04:05:59.449Z,5.93
2022-10-09T04:08:26.607Z,5.89
2022-10-09T04:10:58.715Z,5.86
2022-10-09T04:13:25.841Z,5.78
2022-10-09T04:15:53.598Z,5.95
2022-10-09T04:18:20.398Z,5.91
2022-10-09T04:20:55.286Z,6.09
2022-10-09T04:23:24.564Z,6.13
2022-10-09T04:25:55.328Z,6.08
2022-10-09T04:28:23.676Z,6.20
2022-10-09T04:30:50.652Z,6.21
2022-10-09T04:33:17.519Z,6.14
2022-10-09T04:35:45.527Z,5.98
2022-10-09T04:38:12.712Z,5.79
2022-10-09T04:40:39.478Z,5.74
2022-10-09T04:43:06.502Z,5.72
2022-10-09T04:45:33.440Z,5.92
2022-10-09T04:48:00.291Z,5.97
2022-10-09T04:50:27.072Z,6.08
2022-10-09T04:52:59.739Z,6.04
2022-10-09T04:55:26.694Z,5.94
2022-10-09T04:57:53.496Z,5.84
2022-10-09T05:00:20.398Z,5.82
2022-10-09T05:02:47.533Z,5.92
2022-10-09T05:05:25.699Z,5.80
2022-10-09T05:07:52.498Z,5.93
2022-10-09T05:10:19.227Z,5.97
2022-10-09T05:12:46.155Z,5.94
2022-10-09T05:15:13.475Z,5.90
2022-10-09T05:17:40.329Z,5.91
2022-10-09T05:20:07.363Z,5.98
2022-10-09T05:22:34.175Z,5.93
2022-10-09T05:25:01.047Z,6.01
2022-10-09T05:27:27.781Z,5.91
2022-10-09T05:29:54.482Z,5.84
2022-10-09T05:32:21.961Z,5.86
2022-10-09T05:34:48.792Z,5.78
2022-10-09T05:37:15.558Z,5.87
2022-10-09T05:39:42.417Z,5.88
2022-10-09T05:42:09.205Z,5.82
2022-10-09T05:44:35.938Z,5.95
2022-10-09T05:47:02.628Z,6.01
2022-10-09T05:49:29.308Z,6.09
2022-10-09T05:51:56.132Z,6.30
2022-10-09T05:54:22.915Z,6.20
2022-10-09T05:56:52.955Z,6.31
2022-10-09T05:59:20.131Z,6.25
2022-10-09T06:01:51.334Z,6.31
2022-10-09T06:04:20.508Z,6.17
2022-10-09T06:06:48.673Z,6.14
2022-10-09T06:09:18.072Z,6.11
2022-10-09T06:11:44.895Z,6.07
2022-10-09T06:14:13.579Z,6.07
2022-10-09T06:16:42.324Z,6.02
2022-10-09T06:19:12.683Z,6.13
2022-10-09T06:21:39.546Z,6.10
2022-10-09T06:24:07.261Z,6.28
2022-10-09T06:26:36.376Z,6.43
2022-10-09T06:29:03.878Z,6.41
2022-10-09T06:31:32.598Z,6.47
2022-10-09T06:34:01.451Z,6.54
2022-10-09T06:36:30.451Z,6.45
2022-10-09T06:38:59.662Z,6.51
2022-10-09T06:41:27.676Z,6.64
2022-10-09T06:43:59.616Z,6.75
2022-10-09T06:46:31.770Z,6.81
2022-10-09T06:49:00.212Z,6.79
2022-10-09T06:51:33.904Z,6.77
2022-10-09T06:54:07.463Z,6.84
2022-10-09T06:56:34.229Z,6.82
2022-10-09T06:59:02.666Z,6.95
2022-10-09T07:01:32.308Z,6.97
2022-10-09T07:04:07.410Z,7.07
2022-10-09T07:06:38.116Z,7.11
2022-10-09T07:09:06.899Z,7.23
2022-10-09T07:11:36.109Z,7.33
2022-10-09T07:14:08.601Z,7.43
2022-10-09T07:16:40.838Z,7.48
2022-10-09T07:19:11.521Z,7.51
2022-10-09T07:24:25.606Z,7.63
2022-10-09T07:26:55.515Z,7.79
2022-10-09T07:29:23.326Z,7.79
2022-10-09T07:31:52.210Z,7.68
2022-10-09T07:34:19.094Z,7.66
2022-10-09T07:36:45.820Z,7.91
2022-10-09T07:39:12.603Z,7.98
2022-10-09T07:41:40.060Z,8.11
2022-10-09T07:44:06.851Z,8.10
2022-10-09T07:46:34.291Z,8.19
2022-10-09T07:49:02.092Z,8.00
2022-10-09T07:51:29.694Z,8.12
2022-10-09T07:53:57.478Z,8.08
2022-10-09T07:56:32.468Z,8.28
2022-10-09T07:59:07.625Z,8.35
2022-10-09T08:01:35.511Z,8.37
2022-10-09T08:04:03.145Z,8.29
2022-10-09T08:06:30.307Z,8.39
2022-10-09T08:08:58.470Z,8.43
2022-10-09T08:11:26.917Z,8.58
2022-10-09T08:13:54.134Z,8.68
2022-10-09T08:16:25.164Z,8.68
2022-10-09T08:19:00.137Z,8.71
2022-10-09T08:21:28.698Z,8.67
2022-10-09T08:23:57.497Z,8.79
2022-10-09T08:26:25.472Z,8.91
2022-10-09T08:28:54.469Z,9.01
2022-10-09T08:31:22.715Z,9.17
2022-10-09T08:33:53.984Z,9.23
2022-10-09T08:37:14.781Z,9.29
2022-10-09T08:39:41.891Z,9.35
2022-10-09T08:42:19.769Z,9.41
2022-10-09T08:44:49.261Z,9.51
2022-10-09T08:47:26.398Z,9.54
2022-10-09T08:50:13.361Z,9.71
2022-10-09T08:53:05.369Z,9.81
2022-10-09T08:55:45.923Z,9.83
2022-10-09T08:58:23.784Z,9.83
2022-10-09T09:00:56.615Z,9.86
2022-10-09T09:03:42.548Z,10.01
2022-10-09T09:06:20.124Z,10.04
2022-10-09T09:09:01.256Z,10.07
2022-10-09T09:11:37.976Z,10.04
2022-10-09T09:14:29.033Z,10.11
2022-10-09T09:17:29.913Z,10.19
2022-10-09T09:20:14.864Z,10.29
2022-10-09T09:22:46.265Z,10.41
2022-10-09T09:25:25.185Z,10.55
2022-10-09T09:27:59.369Z,10.61
2022-10-09T09:30:38.262Z,10.61
2022-10-09T09:37:16.648Z,10.94
2022-10-09T09:40:44.369Z,11.02
2022-10-09T09:51:28.451Z,11.33
2022-10-09T09:54:41.532Z,11.41
2022-10-09T09:57:15.949Z,11.40
2022-10-09T09:59:44.284Z,11.44
2022-10-09T10:02:20.524Z,11.74
2022-10-09T10:05:23.948Z,11.92
2022-10-09T10:07:51.650Z,12.06
2022-10-09T10:10:25.626Z,12.10
2022-10-09T10:13:41.444Z,12.09
2022-10-09T10:28:24.246Z,11.94
2022-10-09T10:30:52.256Z,12.11
2022-10-09T10:33:25.586Z,12.06
2022-10-09T10:36:00.006Z,12.27
2022-10-09T10:38:34.271Z,12.20
2022-10-09T10:41:36.468Z,12.32
2022-10-09T10:44:53.680Z,12.42
2022-10-09T10:47:28.867Z,12.27
2022-10-09T10:50:15.740Z,12.53
2022-10-09T10:53:59.744Z,12.71
2022-10-09T10:56:41.957Z,12.74
2022-10-09T10:59:35.681Z,12.93
2022-10-09T11:02:24.635Z,12.90
2022-10-09T11:05:01.665Z,12.78
2022-10-09T11:07:59.922Z,12.58
2022-10-09T11:10:33.100Z,12.61
2022-10-09T11:13:15.442Z,12.54
2022-10-09T11:15:54.335Z,12.62
2022-10-09T11:18:30.178Z,12.45
2022-10-09T11:21:02.904Z,12.46
2022-10-09T11:24:03.075Z,12.51
2022-10-09T11:27:09.292Z,12.93
2022-10-09T11:29:37.790Z,13.29
2022-10-09T11:32:16.496Z,13.59
2022-10-09T11:34:48.882Z,13.25
2022-10-09T11:37:22.943Z,13.10
2022-10-09T11:39:49.846Z,13.42
2022-10-09T11:42:23.218Z,13.92
2022-10-09T11:45:07.999Z,14.29
2022-10-09T11:47:46.931Z,14.67
2022-10-09T11:50:30.496Z,14.44
2022-10-09T11:53:11.728Z,14.22
2022-10-09T11:55:38.822Z,14.26
2022-10-09T11:58:25.315Z,14.60
2022-10-09T12:00:54.831Z,15.06
2022-10-09T12:03:42.100Z,15.48
2022-10-09T12:06:13.718Z,15.76
2022-10-09T12:09:02.145Z,16.06
2022-10-09T12:11:32.780Z,16.08
2022-10-09T12:14:09.739Z,16.29
2022-10-09T12:16:45.844Z,16.49
2022-10-09T12:19:17.679Z,16.39
2022-10-09T12:21:47.758Z,16.58
2022-10-09T12:24:18.218Z,16.82
2022-10-09T12:26:46.205Z,16.92
2022-10-09T12:29:25.504Z,16.82
2022-10-09T12:31:56.215Z,16.61
2022-10-09T12:34:31.174Z,16.33
2022-10-09T12:37:10.747Z,16.24
2022-10-09T12:39:47.320Z,16.43
2022-10-09T12:42:23.603Z,16.53
2022-10-09T12:44:55.156Z,16.72
2022-10-09T12:47:28.162Z,16.84
2022-10-09T12:50:20.375Z,16.62
2022-10-09T12:52:55.414Z,16.80
2022-10-09T12:55:40.586Z,16.99
2022-10-09T12:58:12.322Z,17.44
2022-10-09T13:00:42.398Z,17.80
2022-10-09T13:03:24.120Z,17.85
2022-10-09T13:05:51.777Z,17.84
2022-10-09T13:08:24.479Z,18.09
2022-10-09T13:10:51.481Z,18.30
2022-10-09T13:13:21.734Z,18.41
2022-10-09T13:16:02.734Z,18.39
2022-10-09T13:18:29.664Z,17.96
2022-10-09T13:21:03.486Z,17.60
2022-10-09T13:23:34.319Z,17.23
2022-10-09T13:26:45.077Z,17.08
2022-10-09T13:29:18.858Z,17.37
2022-10-09T13:31:45.683Z,17.48
2022-10-09T13:34:13.451Z,17.57
2022-10-09T13:36:40.588Z,17.77
2022-10-09T13:39:09.342Z,17.90
2022-10-09T13:41:36.871Z,18.28
2022-10-09T13:44:03.577Z,18.41
2022-10-09T13:46:30.279Z,18.42
2022-10-09T13:48:56.989Z,18.29
2022-10-09T13:51:23.720Z,18.21
2022-10-09T13:53:50.593Z,18.36
2022-10-09T13:56:17.235Z,18.46
2022-10-09T13:58:43.962Z,18.53
2022-10-09T14:01:10.875Z,18.58
2022-10-09T14:03:37.561Z,18.56
2022-10-09T14:06:04.521Z,18.37
2022-10-09T14:12:40.621Z,17.89
2022-10-09T14:15:13.009Z,18.24
2022-10-09T14:17:46.962Z,18.48
2022-10-09T14:20:20.218Z,18.59
2022-10-09T14:22:51.173Z,18.62
2022-10-09T14:25:20.624Z,18.64
2022-10-09T14:27:49.859Z,18.74
2022-10-09T14:30:17.916Z,18.73
2022-10-09T14:32:45.132Z,18.72
2022-10-09T14:35:17.108Z,18.83
2022-10-09T14:37:49.793Z,18.73
2022-10-09T14:40:17.412Z,18.70
2022-10-09T14:42:44.549Z,18.67
2022-10-09T14:45:11.875Z,18.55
2022-10-09T14:47:48.456Z,18.65
2022-10-09T14:50:18.137Z,18.59
2022-10-09T14:52:51.150Z,18.39
2022-10-09T14:55:21.813Z,18.64
2022-10-09T14:57:53.945Z,18.61
2022-10-09T15:00:26.707Z,18.56
2022-10-09T15:10:06.133Z,18.16
2022-10-09T15:12:32.771Z,18.40
2022-10-09T15:14:59.412Z,19.39
2022-10-09T15:17:26.042Z,20.69
2022-10-09T15:19:54.128Z,21.32
2022-10-09T15:22:20.788Z,21.96
2022-10-09T15:24:48.010Z,22.65
2022-10-09T15:27:14.752Z,22.87
2022-10-09T15:29:41.449Z,22.68
2022-10-09T15:32:08.151Z,22.42
2022-10-09T15:34:36.574Z,22.27
2022-10-09T15:37:06.819Z,21.65
2022-10-09T15:39:33.592Z,19.97
2022-10-09T15:42:00.289Z,18.55
2022-10-09T15:44:26.993Z,17.72
2022-10-09T15:46:53.856Z,17.02
2022-10-09T15:49:20.660Z,16.53
2022-10-09T15:51:47.331Z,16.21
2022-10-09T15:54:15.416Z,15.83
2022-10-09T15:56:42.503Z,15.62
2022-10-09T15:59:13.462Z,15.34
2022-10-09T16:01:40.261Z,15.20
2022-10-09T16:04:07.004Z,15.03
2022-10-09T16:06:33.764Z,14.77
2022-10-09T16:09:01.432Z,14.60
2022-10-09T16:11:28.263Z,14.48
2022-10-09T16:13:55.671Z,14.36
2022-10-09T16:16:24.625Z,14.18
2022-10-09T16:18:51.736Z,14.04
2022-10-09T16:21:23.848Z,13.92
2022-10-09T16:23:54.466Z,13.74
2022-10-09T16:26:24.213Z,13.52
2022-10-09T16:28:52.487Z,13.34
2022-10-09T16:31:24.532Z,13.13
2022-10-09T16:33:51.671Z,12.98
2022-10-09T16:36:18.645Z,13.00
2022-10-09T16:38:46.158Z,12.93
2022-10-09T16:41:17.909Z,12.86
2022-10-09T16:43:46.310Z,12.72
2022-10-09T16:46:39.327Z,12.51
2022-10-09T16:49:06.216Z,12.45
2022-10-09T16:51:35.551Z,12.32
2022-10-09T16:54:04.394Z,12.20
2022-10-09T16:56:34.907Z,12.10
2022-10-09T16:59:04.224Z,11.99
2022-10-09T17:01:32.295Z,12.02
2022-10-09T17:04:00.911Z,11.92
2022-10-09T17:06:27.950Z,11.81
2022-10-09T17:08:57.626Z,11.79
2022-10-09T17:11:25.802Z,11.73
2022-10-09T17:13:53.837Z,11.67
2022-10-09T17:16:21.711Z,11.59
2022-10-09T17:18:49.145Z,11.42
2022-10-09T17:21:17.665Z,11.44
2022-10-09T17:23:44.981Z,11.44
2022-10-09T17:26:15.109Z,11.36
2022-10-09T17:28:42.512Z,11.25
2022-10-09T17:31:11.830Z,11.28
2022-10-09T17:33:43.025Z,11.22
2022-10-09T17:36:10.077Z,11.15
2022-10-09T17:38:37.082Z,11.10
2022-10-09T17:41:05.470Z,11.05
2022-10-09T17:43:32.206Z,11.06
2022-10-09T17:45:59.123Z,10.95
2022-10-09T17:48:25.833Z,10.85
2022-10-09T17:50:53.809Z,10.87
2022-10-09T17:53:22.847Z,10.82
2022-10-09T17:55:50.635Z,10.77
2022-10-09T17:58:18.285Z,10.71
2022-10-09T18:00:45.296Z,10.67
2022-10-09T18:03:12.230Z,10.60
2022-10-09T18:05:47.463Z,10.59
2022-10-09T18:08:15.475Z,10.57
2022-10-09T18:10:42.286Z,10.61
2022-10-09T18:13:10.901Z,10.61
2022-10-09T18:15:39.002Z,10.59
2022-10-09T18:18:06.504Z,10.42
2022-10-09T18:20:37.591Z,10.40
2022-10-09T18:23:04.556Z,10.37
2022-10-09T18:25:31.345Z,10.35
2022-10-09T18:27:58.677Z,10.30
2022-10-09T18:30:25.628Z,10.12
2022-10-09T18:32:52.629Z,10.15
2022-10-09T18:35:19.488Z,10.09
2022-10-09T18:37:46.166Z,9.94
2022-10-09T18:40:14.147Z,9.99
2022-10-09T22:23:35.808Z,8.93
2022-10-09T22:26:08.027Z,8.83
2022-10-09T22:28:53.097Z,8.89
2022-10-09T22:31:29.543Z,8.95
2022-10-09T22:34:07.536Z,8.92
2022-10-09T22:37:01.147Z,8.92
2022-10-09T22:39:44.228Z,8.92
2022-10-09T22:42:11.212Z,8.90
2022-10-09T22:44:38.086Z,8.89
2022-10-09T22:47:05.087Z,8.97
2022-10-09T22:49:34.688Z,8.91
2022-10-09T22:52:04.453Z,8.93
2022-10-09T22:54:31.533Z,8.87
2022-10-09T22:57:09.756Z,8.86
2022-10-09T22:59:41.601Z,8.82
2022-10-09T23:02:20.002Z,8.88
2022-10-09T23:05:27.987Z,8.85
2022-10-09T23:08:18.559Z,8.73
2022-10-09T23:10:45.521Z,8.64
2022-10-09T23:13:30.048Z,8.65
2022-10-09T23:16:00.233Z,8.63
2022-10-09T23:18:29.130Z,8.63
2022-10-09T23:20:56.315Z,8.70
2022-10-09T23:23:36.060Z,8.77
2022-10-09T23:26:24.407Z,8.71
2022-10-09T23:28:56.469Z,8.74
2022-10-09T23:31:31.575Z,8.73
2022-10-09T23:34:01.358Z,8.71
2022-10-09T23:36:32.080Z,8.70
2022-10-09T23:39:00.460Z,8.73
2022-10-09T23:41:30.765Z,8.71
2022-10-09T23:44:00.388Z,8.65
2022-10-09T23:46:31.501Z,8.64
2022-10-09T23:48:58.665Z,8.67
2022-10-09T23:51:30.452Z,8.65
2022-10-09T23:54:05.698Z,8.64
2022-10-09T23:56:36.756Z,8.65
2022-10-09T23:59:10.477Z,8.71
